sensor_id;sensor_type;location;lat;lon;timestamp;pressure;altitude;pressure_sealevel;temperature;humidity
24280;BME280;12395;42.808;23.408;2023-07-31T00:00:55;94575.69;;;19.97;100.00
24280;BME280;12395;42.808;23.408;2023-07-31T00:03:20;94577.56;;;19.96;100.00
24280;BME280;12395;42.808;23.408;2023-07-31T00:05:46;94591.56;;;19.83;100.00
24280;BME280;12395;42.808;23.408;2023-07-31T00:08:11;94581.91;;;19.77;100.00
24280;BME280;12395;42.808;23.408;2023-07-31T00:10:36;94564.47;;;19.65;100.00
24280;BME280;12395;42.808;23.408;2023-07-31T00:13:02;94577.06;;;19.74;100.00
24280;BME280;12395;42.808;23.408;2023-07-31T00:15:27;94564.44;;;19.75;100.00
24280;BME280;12395;42.808;23.408;2023-07-31T00:17:53;94574.91;;;19.76;100.00
24280;BME280;12395;42.808;23.408;2023-07-31T00:20:18;94574.91;;;19.76;100.00
24280;BME280;12395;42.808;23.408;2023-07-31T00:22:43;94557.47;;;19.69;100.00
24280;BME280;12395;42.808;23.408;2023-07-31T00:25:09;94555.56;;;19.74;100.00
24280;BME280;12395;42.808;23.408;2023-07-31T00:27:34;94550.72;;;19.71;100.00
24280;BME280;12395;42.808;23.408;2023-07-31T00:30:00;94549.09;;;19.75;100.00
24280;BME280;12395;42.808;23.408;2023-07-31T00:32:25;94551.75;;;19.85;100.00
24280;BME280;12395;42.808;23.408;2023-07-31T00:34:50;94531.63;;;19.73;100.00
24280;BME280;12395;42.808;23.408;2023-07-31T00:37:16;94530.56;;;19.69;100.00
24280;BME280;12395;42.808;23.408;2023-07-31T00:39:41;94532.41;;;19.78;100.00
24280;BME280;12395;42.808;23.408;2023-07-31T00:42:07;94525.44;;;19.72;100.00
24280;BME280;12395;42.808;23.408;2023-07-31T00:44:33;94527.03;;;19.78;100.00
24280;BME280;12395;42.808;23.408;2023-07-31T00:46:58;94529.75;;;19.68;100.00
24280;BME280;12395;42.808;23.408;2023-07-31T00:49:24;94540.50;;;19.63;100.00
24280;BME280;12395;42.808;23.408;2023-07-31T00:51:50;94535.16;;;19.48;100.00
24280;BME280;12395;42.808;23.408;2023-07-31T00:54:15;94539.47;;;19.44;100.00
24280;BME280;12395;42.808;23.408;2023-07-31T00:56:41;94526.59;;;19.41;100.00
24280;BME280;12395;42.808;23.408;2023-07-31T00:59:09;94519.63;;;19.35;100.00
24280;BME280;12395;42.808;23.408;2023-07-31T01:01:34;94531.69;;;19.33;100.00
24280;BME280;12395;42.808;23.408;2023-07-31T01:04:00;94520.41;;;19.25;100.00
24280;BME280;12395;42.808;23.408;2023-07-31T01:11:56;94508.84;;;19.15;100.00
24280;BME280;12395;42.808;23.408;2023-07-31T01:14:21;94501.59;;;19.10;100.00
24280;BME280;12395;42.808;23.408;2023-07-31T01:16:47;94502.16;;;19.02;100.00
24280;BME280;12395;42.808;23.408;2023-07-31T01:19:14;94499.75;;;19.01;100.00
24280;BME280;12395;42.808;23.408;2023-07-31T01:24:30;94492.22;;;18.98;100.00
24280;BME280;12395;42.808;23.408;2023-07-31T01:27:11;94499.44;;;18.82;100.00
24280;BME280;12395;42.808;23.408;2023-07-31T01:36:07;94494.31;;;18.51;100.00
24280;BME280;12395;42.808;23.408;2023-07-31T01:38:32;94503.19;;;18.51;100.00
24280;BME280;12395;42.808;23.408;2023-07-31T01:40:58;94499.38;;;18.42;100.00
24280;BME280;12395;42.808;23.408;2023-07-31T01:43:23;94494.81;;;18.42;100.00
24280;BME280;12395;42.808;23.408;2023-07-31T01:45:49;94497.47;;;18.37;100.00
24280;BME280;12395;42.808;23.408;2023-07-31T01:48:15;94496.41;;;18.33;100.00
24280;BME280;12395;42.808;23.408;2023-07-31T01:50:40;94513.88;;;18.41;100.00
24280;BME280;12395;42.808;23.408;2023-07-31T01:53:05;94497.75;;;18.26;100.00
24280;BME280;12395;42.808;23.408;2023-07-31T01:55:31;94502.84;;;18.27;100.00
24280;BME280;12395;42.808;23.408;2023-07-31T01:57:56;94506.06;;;18.29;100.00
24280;BME280;12395;42.808;23.408;2023-07-31T02:00:22;94509.78;;;18.28;100.00
24280;BME280;12395;42.808;23.408;2023-07-31T02:02:47;94515.16;;;18.23;100.00
24280;BME280;12395;42.808;23.408;2023-07-31T02:05:13;94514.06;;;18.19;100.00
24280;BME280;12395;42.808;23.408;2023-07-31T02:07:38;94522.66;;;18.26;100.00
24280;BME280;12395;42.808;23.408;2023-07-31T02:10:04;94522.13;;;18.24;100.00
24280;BME280;12395;42.808;23.408;2023-07-31T02:12:29;94523.72;;;18.20;100.00
24280;BME280;12395;42.808;23.408;2023-07-31T02:14:58;94514.63;;;18.21;100.00
24280;BME280;12395;42.808;23.408;2023-07-31T02:17:24;94522.66;;;18.26;100.00
24280;BME280;12395;42.808;23.408;2023-07-31T02:19:49;94508.19;;;18.27;100.00
24280;BME280;12395;42.808;23.408;2023-07-31T02:22:15;94498.00;;;18.19;100.00
24280;BME280;12395;42.808;23.408;2023-07-31T02:24:40;94502.81;;;18.22;100.00
24280;BME280;12395;42.808;23.408;2023-07-31T02:27:06;94492.88;;;18.18;100.00
24280;BME280;12395;42.808;23.408;2023-07-31T02:29:31;94517.03;;;18.23;100.00
24280;BME280;12395;42.808;23.408;2023-07-31T02:31:56;94516.22;;;18.22;100.00
24280;BME280;12395;42.808;23.408;2023-07-31T02:34:22;94515.13;;;18.18;100.00
24280;BME280;12395;42.808;23.408;2023-07-31T02:36:47;94510.56;;;18.14;100.00
24280;BME280;12395;42.808;23.408;2023-07-31T02:39:13;94520.50;;;18.18;100.00
24280;BME280;12395;42.808;23.408;2023-07-31T02:41:38;94515.13;;;18.13;100.00
24280;BME280;12395;42.808;23.408;2023-07-31T02:44:04;94500.63;;;18.04;100.00
24280;BME280;12395;42.808;23.408;2023-07-31T02:46:29;94521.75;;;17.96;100.00
24280;BME280;12395;42.808;23.408;2023-07-31T02:48:54;94531.16;;;18.03;100.00
24280;BME280;12395;42.808;23.408;2023-07-31T02:51:20;94532.47;;;18.01;100.00
24280;BME280;12395;42.808;23.408;2023-07-31T02:53:47;94530.88;;;18.00;100.00
24280;BME280;12395;42.808;23.408;2023-07-31T02:56:13;94548.41;;;18.17;100.00
24280;BME280;12395;42.808;23.408;2023-07-31T02:58:38;94558.88;;;18.29;100.00
24280;BME280;12395;42.808;23.408;2023-07-31T03:01:04;94545.19;;;18.25;100.00
24280;BME280;12395;42.808;23.408;2023-07-31T03:03:29;94551.94;;;18.38;100.00
24280;BME280;12395;42.808;23.408;2023-07-31T03:05:55;94550.06;;;18.43;100.00
24280;BME280;12395;42.808;23.408;2023-07-31T03:08:20;94548.47;;;18.42;100.00
24280;BME280;12395;42.808;23.408;2023-07-31T03:10:46;94533.44;;;18.41;100.00
24280;BME280;12395;42.808;23.408;2023-07-31T03:13:11;94545.53;;;18.44;100.00
24280;BME280;12395;42.808;23.408;2023-07-31T03:15:36;94542.81;;;18.34;100.00
24280;BME280;12395;42.808;23.408;2023-07-31T03:18:02;94546.03;;;18.36;100.00
24280;BME280;12395;42.808;23.408;2023-07-31T03:20:27;94562.66;;;18.38;100.00
24280;BME280;12395;42.808;23.408;2023-07-31T03:22:53;94554.34;;;18.34;100.00
24280;BME280;12395;42.808;23.408;2023-07-31T03:25:18;94554.34;;;18.39;100.00
24280;BME280;12395;42.808;23.408;2023-07-31T03:27:44;94556.00;;;18.45;100.00
24280;BME280;12395;42.808;23.408;2023-07-31T03:30:09;94564.34;;;18.54;100.00
24280;BME280;12395;42.808;23.408;2023-07-31T03:32:35;94562.47;;;18.44;100.00
24280;BME280;12395;42.808;23.408;2023-07-31T03:35:00;94564.63;;;18.48;100.00
24280;BME280;12395;42.808;23.408;2023-07-31T03:37:25;94555.94;;;18.30;100.00
24280;BME280;12395;42.808;23.408;2023-07-31T03:39:51;94567.75;;;18.39;100.00
24280;BME280;12395;42.808;23.408;2023-07-31T03:42:17;94560.78;;;18.43;100.00
24280;BME280;12395;42.808;23.408;2023-07-31T03:44:42;94549.78;;;18.35;100.00
24280;BME280;12395;42.808;23.408;2023-07-31T03:47:08;94567.31;;;18.58;100.00
24280;BME280;12395;42.808;23.408;2023-07-31T03:49:33;94566.25;;;18.59;100.00
24280;BME280;12395;42.808;23.408;2023-07-31T03:51:58;94579.94;;;18.57;100.00
24280;BME280;12395;42.808;23.408;2023-07-31T03:54:25;94563.56;;;18.59;100.00
24280;BME280;12395;42.808;23.408;2023-07-31T03:56:50;94565.69;;;18.57;100.00
24280;BME280;12395;42.808;23.408;2023-07-31T03:59:16;94568.38;;;18.52;100.00
24280;BME280;12395;42.808;23.408;2023-07-31T04:01:41;94570.28;;;18.56;100.00
24280;BME280;12395;42.808;23.408;2023-07-31T04:04:07;94575.94;;;18.70;100.00
24280;BME280;12395;42.808;23.408;2023-07-31T04:06:32;94587.53;;;18.90;100.00
24280;BME280;12395;42.808;23.408;2023-07-31T04:08:57;94585.09;;;18.94;100.00
24280;BME280;12395;42.808;23.408;2023-07-31T04:11:23;94563.63;;;18.89;100.00
24280;BME280;12395;42.808;23.408;2023-07-31T04:13:48;94582.97;;;19.11;100.00
24280;BME280;12395;42.808;23.408;2023-07-31T04:16:14;94583.00;;;19.26;100.00
24280;BME280;12395;42.808;23.408;2023-07-31T04:18:39;94580.31;;;19.36;100.00
24280;BME280;12395;42.808;23.408;2023-07-31T04:21:04;94575.47;;;19.48;100.00
24280;BME280;12395;42.808;23.408;2023-07-31T04:23:30;94588.34;;;19.76;100.00
24280;BME280;12395;42.808;23.408;2023-07-31T04:25:55;94591.00;;;20.02;100.00
24280;BME280;12395;42.808;23.408;2023-07-31T04:28:21;94585.00;;;20.20;100.00
24280;BME280;12395;42.808;23.408;2023-07-31T04:30:46;94575.91;;;20.21;100.00
24280;BME280;12395;42.808;23.408;2023-07-31T04:33:12;94602.19;;;20.44;100.00
24280;BME280;12395;42.808;23.408;2023-07-31T04:35:37;94614.00;;;20.53;100.00
24280;BME280;12395;42.808;23.408;2023-07-31T04:38:03;94611.47;;;20.71;100.00
24280;BME280;12395;42.808;23.408;2023-07-31T04:40:28;94611.72;;;20.70;100.00
24280;BME280;12395;42.808;23.408;2023-07-31T04:42:53;94609.91;;;20.55;100.00
24280;BME280;12395;42.808;23.408;2023-07-31T04:45:19;94607.28;;;20.50;100.00
24280;BME280;12395;42.808;23.408;2023-07-31T04:47:44;94593.28;;;20.48;100.00
24280;BME280;12395;42.808;23.408;2023-07-31T04:50:10;94591.38;;;20.49;100.00
24280;BME280;12395;42.808;23.408;2023-07-31T04:52:35;94608.59;;;20.53;100.00
24280;BME280;12395;42.808;23.408;2023-07-31T04:55:01;94597.00;;;20.57;100.00
24280;BME280;12395;42.808;23.408;2023-07-31T04:57:26;94591.00;;;20.70;100.00
24280;BME280;12395;42.808;23.408;2023-07-31T04:59:51;94600.88;;;20.90;100.00
24280;BME280;12395;42.808;23.408;2023-07-31T05:02:17;94598.41;;;21.04;100.00
24280;BME280;12395;42.808;23.408;2023-07-31T05:04:42;94605.97;;;21.35;100.00
24280;BME280;12395;42.808;23.408;2023-07-31T05:07:08;94612.72;;;21.67;100.00
24280;BME280;12395;42.808;23.408;2023-07-31T05:09:34;94621.78;;;21.81;100.00
24280;BME280;12395;42.808;23.408;2023-07-31T05:11:59;94604.56;;;21.77;100.00
24280;BME280;12395;42.808;23.408;2023-07-31T05:14:26;94611.00;;;21.81;100.00
24280;BME280;12395;42.808;23.408;2023-07-31T05:16:51;94604.50;;;21.87;100.00
24280;BME280;12395;42.808;23.408;2023-07-31T05:19:17;94613.69;;;21.81;100.00
24280;BME280;12395;42.808;23.408;2023-07-31T05:21:42;94611.25;;;21.84;100.00
24280;BME280;12395;42.808;23.408;2023-07-31T05:24:10;94609.25;;;21.95;100.00
24280;BME280;12395;42.808;23.408;2023-07-31T05:26:36;94613.09;;;21.89;100.00
24280;BME280;12395;42.808;23.408;2023-07-31T05:29:03;94602.13;;;22.09;100.00
24280;BME280;12395;42.808;23.408;2023-07-31T05:31:28;94609.34;;;22.37;100.00
24280;BME280;12395;42.808;23.408;2023-07-31T05:33:54;94598.56;;;22.61;100.00
24280;BME280;12395;42.808;23.408;2023-07-31T05:36:19;94601.31;;;22.79;97.65
24280;BME280;12395;42.808;23.408;2023-07-31T05:38:45;94627.47;;;23.02;95.28
24280;BME280;12395;42.808;23.408;2023-07-31T05:41:13;94611.47;;;23.25;94.64
24280;BME280;12395;42.808;23.408;2023-07-31T05:43:39;94626.91;;;23.43;93.91
24280;BME280;12395;42.808;23.408;2023-07-31T05:46:04;94620.41;;;23.44;90.85
24280;BME280;12395;42.808;23.408;2023-07-31T05:48:29;94615.34;;;23.56;89.16
24280;BME280;12395;42.808;23.408;2023-07-31T05:50:55;94613.84;;;23.82;87.10
24280;BME280;12395;42.808;23.408;2023-07-31T05:53:20;94619.28;;;23.96;86.24
24280;BME280;12395;42.808;23.408;2023-07-31T05:55:46;94617.31;;;24.01;86.35
24280;BME280;12395;42.808;23.408;2023-07-31T05:58:11;94619.00;;;23.97;86.40
24280;BME280;12395;42.808;23.408;2023-07-31T06:00:37;94621.16;;;23.95;83.74
24280;BME280;12395;42.808;23.408;2023-07-31T06:03:02;94624.41;;;23.97;84.22
24280;BME280;12395;42.808;23.408;2023-07-31T06:05:28;94623.81;;;24.00;86.03
24280;BME280;12395;42.808;23.408;2023-07-31T06:07:55;94625.84;;;24.08;86.54
24280;BME280;12395;42.808;23.408;2023-07-31T06:10:23;94614.50;;;24.06;85.92
24280;BME280;12395;42.808;23.408;2023-07-31T06:12:49;94621.53;;;24.07;84.91
24280;BME280;12395;42.808;23.408;2023-07-31T06:15:14;94633.19;;;23.89;83.99
24280;BME280;12395;42.808;23.408;2023-07-31T06:17:40;94629.69;;;23.89;84.61
24280;BME280;12395;42.808;23.408;2023-07-31T06:20:06;94636.75;;;24.03;84.72
24280;BME280;12395;42.808;23.408;2023-07-31T06:22:32;94629.69;;;23.89;83.50
24280;BME280;12395;42.808;23.408;2023-07-31T06:24:58;94638.84;;;23.74;85.78
24280;BME280;12395;42.808;23.408;2023-07-31T06:27:23;94628.00;;;23.93;85.40
24280;BME280;12395;42.808;23.408;2023-07-31T06:29:49;94638.59;;;24.21;84.07
24280;BME280;12395;42.808;23.408;2023-07-31T06:32:14;94622.66;;;24.20;82.70
24280;BME280;12395;42.808;23.408;2023-07-31T06:34:40;94632.69;;;24.06;81.40
24280;BME280;12395;42.808;23.408;2023-07-31T06:37:05;94631.84;;;23.73;80.68
24280;BME280;12395;42.808;23.408;2023-07-31T06:39:31;94623.28;;;23.66;83.43
24280;BME280;12395;42.808;23.408;2023-07-31T06:41:56;94630.03;;;23.68;82.61
24280;BME280;12395;42.808;23.408;2023-07-31T06:44:21;94633.94;;;23.76;83.23
24280;BME280;12395;42.808;23.408;2023-07-31T06:46:47;94626.31;;;23.64;83.86
24280;BME280;12395;42.808;23.408;2023-07-31T06:49:12;94628.19;;;23.64;83.17
24280;BME280;12395;42.808;23.408;2023-07-31T06:51:40;94625.50;;;23.64;81.93
24280;BME280;12395;42.808;23.408;2023-07-31T06:54:05;94624.03;;;23.53;82.30
24280;BME280;12395;42.808;23.408;2023-07-31T06:56:31;94606.56;;;23.27;83.31
24280;BME280;12395;42.808;23.408;2023-07-31T06:58:56;94615.72;;;23.31;85.55
24280;BME280;12395;42.808;23.408;2023-07-31T07:01:22;94611.41;;;23.30;82.80
24280;BME280;12395;42.808;23.408;2023-07-31T07:03:47;94621.66;;;23.33;82.94
24280;BME280;12395;42.808;23.408;2023-07-31T07:06:16;94621.50;;;23.24;83.96
24280;BME280;12395;42.808;23.408;2023-07-31T07:08:41;94623.97;;;23.21;82.93
24280;BME280;12395;42.808;23.408;2023-07-31T07:11:07;94620.63;;;23.29;81.43
24280;BME280;12395;42.808;23.408;2023-07-31T07:13:32;94622.31;;;23.43;83.24
24280;BME280;12395;42.808;23.408;2023-07-31T07:15:58;94616.44;;;23.55;83.19
24280;BME280;12395;42.808;23.408;2023-07-31T07:18:23;94625.94;;;23.71;80.95
24280;BME280;12395;42.808;23.408;2023-07-31T07:20:50;94619.06;;;23.60;79.99
24280;BME280;12395;42.808;23.408;2023-07-31T07:23:16;94616.41;;;23.41;79.81
24280;BME280;12395;42.808;23.408;2023-07-31T07:25:43;94634.34;;;23.51;80.09
24280;BME280;12395;42.808;23.408;2023-07-31T07:28:09;94627.00;;;23.70;78.12
24280;BME280;12395;42.808;23.408;2023-07-31T07:30:34;94628.56;;;24.08;76.19
24280;BME280;12395;42.808;23.408;2023-07-31T07:33:00;94620.28;;;24.18;77.19
24280;BME280;12395;42.808;23.408;2023-07-31T07:35:25;94616.34;;;24.11;77.20
24280;BME280;12395;42.808;23.408;2023-07-31T07:37:50;94618.84;;;24.07;73.82
24280;BME280;12395;42.808;23.408;2023-07-31T07:40:16;94630.75;;;24.06;76.17
24280;BME280;12395;42.808;23.408;2023-07-31T07:42:41;94624.88;;;24.18;75.56
24280;BME280;12395;42.808;23.408;2023-07-31T07:45:07;94627.41;;;24.41;75.06
24280;BME280;12395;42.808;23.408;2023-07-31T07:47:33;94625.50;;;24.42;74.70
24280;BME280;12395;42.808;23.408;2023-07-31T07:49:58;94639.22;;;24.18;73.77
24280;BME280;12395;42.808;23.408;2023-07-31T07:52:23;94642.59;;;24.10;73.82
24280;BME280;12395;42.808;23.408;2023-07-31T07:54:49;94633.53;;;24.01;74.53
24280;BME280;12395;42.808;23.408;2023-07-31T07:57:15;94638.72;;;24.16;74.23
24280;BME280;12395;42.808;23.408;2023-07-31T07:59:41;94637.03;;;24.47;75.14
24280;BME280;12395;42.808;23.408;2023-07-31T08:02:07;94622.13;;;24.77;75.09
24280;BME280;12395;42.808;23.408;2023-07-31T08:04:32;94622.06;;;25.18;71.92
24280;BME280;12395;42.808;23.408;2023-07-31T08:06:57;94625.16;;;25.25;70.63
24280;BME280;12395;42.808;23.408;2023-07-31T08:09:23;94627.88;;;25.25;70.33
24280;BME280;12395;42.808;23.408;2023-07-31T08:11:48;94645.72;;;25.26;67.67
24280;BME280;12395;42.808;23.408;2023-07-31T08:14:14;94641.84;;;25.18;68.89
24280;BME280;12395;42.808;23.408;2023-07-31T08:16:39;94632.81;;;24.96;68.69
24280;BME280;12395;42.808;23.408;2023-07-31T08:19:05;94637.66;;;24.99;68.52
24280;BME280;12395;42.808;23.408;2023-07-31T08:21:31;94623.69;;;25.19;69.01
24280;BME280;12395;42.808;23.408;2023-07-31T08:23:56;94634.53;;;25.41;65.35
24280;BME280;12395;42.808;23.408;2023-07-31T08:26:22;94646.38;;;25.59;67.27
24280;BME280;12395;42.808;23.408;2023-07-31T08:28:47;94633.00;;;25.62;64.38
24280;BME280;12395;42.808;23.408;2023-07-31T08:31:13;94618.69;;;25.48;65.15
24280;BME280;12395;42.808;23.408;2023-07-31T08:33:39;94629.34;;;25.31;66.57
24280;BME280;12395;42.808;23.408;2023-07-31T08:36:05;94627.75;;;25.30;65.40
24280;BME280;12395;42.808;23.408;2023-07-31T08:38:31;94628.88;;;25.29;65.90
24280;BME280;12395;42.808;23.408;2023-07-31T08:40:57;94651.41;;;25.52;65.73
24280;BME280;12395;42.808;23.408;2023-07-31T08:43:25;94629.94;;;25.55;65.16
24280;BME280;12395;42.808;23.408;2023-07-31T08:45:51;94632.75;;;25.94;64.15
24280;BME280;12395;42.808;23.408;2023-07-31T08:48:17;94642.69;;;26.52;60.88
24280;BME280;12395;42.808;23.408;2023-07-31T08:50:45;94615.28;;;26.09;60.56
24280;BME280;12395;42.808;23.408;2023-07-31T08:53:11;94630.66;;;26.44;61.91
24280;BME280;12395;42.808;23.408;2023-07-31T08:55:38;94642.59;;;26.35;59.87
24280;BME280;12395;42.808;23.408;2023-07-31T08:58:03;94648.75;;;26.18;62.49
24280;BME280;12395;42.808;23.408;2023-07-31T09:00:29;94639.94;;;26.13;60.78
24280;BME280;12395;42.808;23.408;2023-07-31T09:03:03;94644.03;;;25.88;62.81
24280;BME280;12395;42.808;23.408;2023-07-31T09:05:30;94641.03;;;25.89;61.82
24280;BME280;12395;42.808;23.408;2023-07-31T09:07:56;94617.81;;;25.83;63.13
24280;BME280;12395;42.808;23.408;2023-07-31T09:10:22;94634.22;;;26.23;60.12
24280;BME280;12395;42.808;23.408;2023-07-31T09:12:49;94652.09;;;26.46;59.24
24280;BME280;12395;42.808;23.408;2023-07-31T09:15:16;94636.13;;;26.75;55.29
24280;BME280;12395;42.808;23.408;2023-07-31T09:17:41;94630.28;;;26.99;57.92
24280;BME280;12395;42.808;23.408;2023-07-31T09:20:20;94635.25;;;27.31;56.93
24280;BME280;12395;42.808;23.408;2023-07-31T09:22:48;94637.03;;;27.27;56.16
24280;BME280;12395;42.808;23.408;2023-07-31T09:25:18;94643.88;;;27.07;56.07
24280;BME280;12395;42.808;23.408;2023-07-31T09:30:20;94631.91;;;27.17;57.34
24280;BME280;12395;42.808;23.408;2023-07-31T09:32:48;94628.38;;;27.25;54.43
24280;BME280;12395;42.808;23.408;2023-07-31T09:35:19;94629.09;;;27.56;55.18
24280;BME280;12395;42.808;23.408;2023-07-31T09:37:59;94640.41;;;27.32;53.13
24280;BME280;12395;42.808;23.408;2023-07-31T09:40:36;94632.59;;;27.39;50.21
24280;BME280;12395;42.808;23.408;2023-07-31T09:43:06;94620.84;;;27.05;52.51
24280;BME280;12395;42.808;23.408;2023-07-31T09:45:40;94620.81;;;26.96;56.10
24280;BME280;12395;42.808;23.408;2023-07-31T09:48:10;94628.31;;;26.91;55.17
24280;BME280;12395;42.808;23.408;2023-07-31T09:50:40;94621.59;;;26.97;54.61
24280;BME280;12395;42.808;23.408;2023-07-31T09:53:07;94616.66;;;26.90;55.72
24280;BME280;12395;42.808;23.408;2023-07-31T09:55:33;94614.72;;;26.99;54.24
24280;BME280;12395;42.808;23.408;2023-07-31T09:57:59;94620.16;;;26.99;54.52
24280;BME280;12395;42.808;23.408;2023-07-31T10:00:26;94614.91;;;27.03;54.38
24280;BME280;12395;42.808;23.408;2023-07-31T10:02:54;94591.69;;;26.97;53.52
24280;BME280;12395;42.808;23.408;2023-07-31T10:05:21;94622.00;;;27.29;54.81
24280;BME280;12395;42.808;23.408;2023-07-31T10:07:57;94606.06;;;26.89;53.05
24280;BME280;12395;42.808;23.408;2023-07-31T10:10:22;94613.78;;;27.04;53.15
24280;BME280;12395;42.808;23.408;2023-07-31T10:12:49;94611.00;;;27.52;50.95
24280;BME280;12395;42.808;23.408;2023-07-31T10:15:15;94606.00;;;27.96;51.57
24280;BME280;12395;42.808;23.408;2023-07-31T10:17:41;94605.81;;;28.27;48.70
24280;BME280;12395;42.808;23.408;2023-07-31T10:20:08;94600.34;;;28.36;49.44
24280;BME280;12395;42.808;23.408;2023-07-31T10:22:34;94599.22;;;28.28;47.85
24280;BME280;12395;42.808;23.408;2023-07-31T10:25:00;94611.63;;;28.00;49.27
24280;BME280;12395;42.808;23.408;2023-07-31T10:27:25;94601.19;;;27.85;49.40
24280;BME280;12395;42.808;23.408;2023-07-31T10:29:53;94606.50;;;27.73;50.35
24280;BME280;12395;42.808;23.408;2023-07-31T10:32:20;94602.81;;;27.86;52.30
24280;BME280;12395;42.808;23.408;2023-07-31T10:34:47;94607.28;;;27.90;48.39
24280;BME280;12395;42.808;23.408;2023-07-31T10:37:38;94601.19;;;27.93;49.42
24280;BME280;12395;42.808;23.408;2023-07-31T10:40:15;94601.03;;;27.90;49.22
24280;BME280;12395;42.808;23.408;2023-07-31T10:42:57;94596.34;;;28.24;48.56
24280;BME280;12395;42.808;23.408;2023-07-31T10:45:39;94597.78;;;28.31;47.19
24280;BME280;12395;42.808;23.408;2023-07-31T10:48:12;94591.44;;;28.47;48.22
24280;BME280;12395;42.808;23.408;2023-07-31T10:50:46;94572.50;;;28.59;49.08
24280;BME280;12395;42.808;23.408;2023-07-31T10:53:26;94596.31;;;28.79;47.18
24280;BME280;12395;42.808;23.408;2023-07-31T10:55:51;94579.31;;;28.82;47.72
24280;BME280;12395;42.808;23.408;2023-07-31T10:58:19;94588.78;;;29.06;46.28
24280;BME280;12395;42.808;23.408;2023-07-31T11:00:46;94581.78;;;29.25;46.37
24280;BME280;12395;42.808;23.408;2023-07-31T11:03:19;94569.13;;;29.21;43.48
24280;BME280;12395;42.808;23.408;2023-07-31T11:08:24;94572.41;;;28.76;44.27
24280;BME280;12395;42.808;23.408;2023-07-31T11:13:30;94573.09;;;28.73;46.30
24280;BME280;12395;42.808;23.408;2023-07-31T11:15:56;94569.47;;;28.52;46.41
24280;BME280;12395;42.808;23.408;2023-07-31T11:18:22;94569.19;;;28.45;46.29
24280;BME280;12395;42.808;23.408;2023-07-31T11:20:47;94572.44;;;28.30;46.75
24280;BME280;12395;42.808;23.408;2023-07-31T11:23:15;94566.84;;;28.27;47.94
24280;BME280;12395;42.808;23.408;2023-07-31T11:25:42;94567.94;;;28.34;48.17
24280;BME280;12395;42.808;23.408;2023-07-31T11:28:14;94557.63;;;28.02;47.27
24280;BME280;12395;42.808;23.408;2023-07-31T11:30:42;94570.59;;;28.05;48.61
24280;BME280;12395;42.808;23.408;2023-07-31T11:33:09;94541.75;;;27.87;47.20
24280;BME280;12395;42.808;23.408;2023-07-31T11:38:07;94563.63;;;28.33;46.01
24280;BME280;12395;42.808;23.408;2023-07-31T11:40:43;94551.03;;;28.49;46.12
24280;BME280;12395;42.808;23.408;2023-07-31T11:43:10;94539.38;;;28.40;44.94
24280;BME280;12395;42.808;23.408;2023-07-31T11:45:45;94552.06;;;28.36;45.03
24280;BME280;12395;42.808;23.408;2023-07-31T11:48:22;94554.97;;;28.31;45.23
24280;BME280;12395;42.808;23.408;2023-07-31T11:50:49;94560.28;;;28.19;46.99
24280;BME280;12395;42.808;23.408;2023-07-31T11:53:17;94558.22;;;28.16;48.88
24280;BME280;12395;42.808;23.408;2023-07-31T11:55:44;94552.66;;;28.04;47.35
24280;BME280;12395;42.808;23.408;2023-07-31T11:58:10;94543.69;;;27.95;48.44
24280;BME280;12395;42.808;23.408;2023-07-31T12:00:36;94544.84;;;27.77;47.99
24280;BME280;12395;42.808;23.408;2023-07-31T12:03:02;94548.00;;;27.87;46.96
24280;BME280;12395;42.808;23.408;2023-07-31T12:05:28;94539.03;;;28.04;47.04
24280;BME280;12395;42.808;23.408;2023-07-31T12:07:54;94542.44;;;27.84;47.12
24280;BME280;12395;42.808;23.408;2023-07-31T12:10:31;94534.41;;;27.79;46.80
24280;BME280;12395;42.808;23.408;2023-07-31T12:13:02;94543.44;;;27.54;46.57
24280;BME280;12395;42.808;23.408;2023-07-31T12:15:43;94539.59;;;27.37;49.52
24280;BME280;12395;42.808;23.408;2023-07-31T12:18:13;94529.00;;;27.27;48.04
24280;BME280;12395;42.808;23.408;2023-07-31T12:20:47;94536.38;;;27.35;49.69
24280;BME280;12395;42.808;23.408;2023-07-31T12:23:21;94534.81;;;27.43;50.99
24280;BME280;12395;42.808;23.408;2023-07-31T12:26:13;94537.66;;;27.55;50.48
24280;BME280;12395;42.808;23.408;2023-07-31T12:31:28;94539.41;;;27.17;55.78
24280;BME280;12395;42.808;23.408;2023-07-31T12:33:57;94522.84;;;26.62;59.41
24280;BME280;12395;42.808;23.408;2023-07-31T12:36:23;94531.34;;;26.77;63.03
24280;BME280;12395;42.808;23.408;2023-07-31T12:38:50;94531.00;;;26.62;64.84
24280;BME280;12395;42.808;23.408;2023-07-31T12:41:16;94506.50;;;26.45;65.43
24280;BME280;12395;42.808;23.408;2023-07-31T12:43:43;94527.47;;;26.61;64.21
24280;BME280;12395;42.808;23.408;2023-07-31T12:46:08;94512.81;;;26.88;65.64
24280;BME280;12395;42.808;23.408;2023-07-31T12:48:35;94508.34;;;26.75;64.39
24280;BME280;12395;42.808;23.408;2023-07-31T12:51:01;94501.66;;;26.90;68.01
24280;BME280;12395;42.808;23.408;2023-07-31T12:53:27;94507.09;;;27.07;64.38
24280;BME280;12395;42.808;23.408;2023-07-31T12:55:52;94502.94;;;27.01;61.25
24280;BME280;12395;42.808;23.408;2023-07-31T12:58:18;94500.84;;;26.89;60.71
24280;BME280;12395;42.808;23.408;2023-07-31T13:00:43;94495.56;;;26.84;60.83
24280;BME280;12395;42.808;23.408;2023-07-31T13:03:10;94493.09;;;26.57;62.06
24280;BME280;12395;42.808;23.408;2023-07-31T13:05:36;94483.34;;;26.47;56.32
24280;BME280;12395;42.808;23.408;2023-07-31T13:08:01;94493.56;;;26.59;58.65
24280;BME280;12395;42.808;23.408;2023-07-31T13:10:27;94484.03;;;26.22;56.08